createdAt,value
2022-11-18T00:02:13.268Z,99871.41
2022-11-18T00:04:42.807Z,99866.00
2022-11-18T00:07:12.407Z,99870.88
2022-11-18T00:09:44.466Z,99873.72
2022-11-18T00:12:26.478Z,99870.97
2022-11-18T00:14:56.019Z,99874.97
2022-11-18T00:17:25.445Z,99875.03
2022-11-18T00:19:55.009Z,99880.13
2022-11-18T00:22:29.762Z,99875.72
2022-11-18T00:25:02.046Z,99879.47
2022-11-18T00:27:32.541Z,99877.59
2022-11-18T00:30:02.010Z,99882.00
2022-11-18T00:32:32.503Z,99882.88
2022-11-18T00:35:02.224Z,99888.06
2022-11-18T00:37:31.740Z,99890.63
2022-11-18T00:40:03.859Z,99889.94
2022-11-18T00:42:45.800Z,99885.31
2022-11-18T00:45:16.456Z,99895.25
2022-11-18T00:47:45.845Z,99905.41
2022-11-18T00:50:15.776Z,99904.97
2022-11-18T00:52:45.365Z,99907.41
2022-11-18T00:55:17.856Z,99909.94
2022-11-18T00:57:47.309Z,99915.00
2022-11-18T01:00:17.851Z,99909.38
2022-11-18T01:02:47.366Z,99916.00
2022-11-18T01:05:16.834Z,99918.66
2022-11-18T01:07:46.265Z,99917.56
2022-11-18T01:10:18.973Z,99917.00
2022-11-18T01:13:00.994Z,99922.75
2022-11-18T01:15:30.422Z,99926.91
2022-11-18T01:17:59.827Z,99923.28
2022-11-18T01:20:29.270Z,99928.34
2022-11-18T01:22:58.710Z,99933.66
2022-11-18T01:25:30.826Z,99933.66
2022-11-18T01:28:00.227Z,99937.63
2022-11-18T01:30:29.694Z,99936.75
2022-11-18T01:32:59.142Z,99942.59
2022-11-18T01:35:28.586Z,99939.72
2022-11-18T01:37:58.078Z,99948.19
2022-11-18T01:40:30.473Z,99951.75
2022-11-18T01:43:00.039Z,99949.09
2022-11-18T01:45:38.257Z,99949.75
2022-11-18T01:48:09.782Z,99951.28
2022-11-18T01:50:42.029Z,99957.34
2022-11-18T01:53:14.364Z,99958.56
2022-11-18T01:55:49.007Z,99963.66
2022-11-18T01:58:21.783Z,99965.84
2022-11-18T02:00:51.271Z,99969.25
2022-11-18T02:03:20.909Z,99971.13
2022-11-18T02:05:51.288Z,99973.78
2022-11-18T02:08:22.011Z,99971.13
2022-11-18T02:10:53.997Z,99976.84
2022-11-18T02:13:24.041Z,99978.53
2022-11-18T02:15:58.570Z,99975.75
2022-11-18T02:18:34.211Z,99978.81
2022-11-18T02:21:14.840Z,99980.63
2022-11-18T02:24:04.850Z,99982.81
2022-11-18T02:27:11.761Z,99986.16
2022-11-18T02:29:45.819Z,99983.28
2022-11-18T02:32:18.379Z,99979.41
2022-11-18T02:34:52.062Z,99979.53
2022-11-18T02:37:25.849Z,99972.88
2022-11-18T02:39:59.914Z,99978.63
2022-11-18T02:42:30.337Z,99973.66
2022-11-18T02:45:07.249Z,99976.09
2022-11-18T02:47:38.126Z,99978.41
2022-11-18T02:50:10.358Z,99982.41
2022-11-18T02:52:42.078Z,99990.97
2022-11-18T02:55:14.093Z,99989.66
2022-11-18T02:57:44.418Z,99994.94
2022-11-18T03:00:17.989Z,99996.19
2022-11-18T03:02:48.541Z,100001.47
2022-11-18T03:05:22.114Z,100005.97
2022-11-18T03:07:55.390Z,100003.75
2022-11-18T03:10:26.894Z,100002.44
2022-11-18T03:13:02.942Z,100009.59
2022-11-18T03:15:38.737Z,100007.59
2022-11-18T03:18:21.168Z,100010.13
2022-11-18T03:20:52.886Z,100020.03
2022-11-18T03:23:27.394Z,100015.16
2022-11-18T03:25:58.522Z,100009.91
2022-11-18T03:28:32.548Z,100025.66
2022-11-18T03:31:08.502Z,100025.28
2022-11-18T03:33:39.261Z,100022.50
2022-11-18T03:36:10.729Z,100034.91
2022-11-18T03:38:43.536Z,100042.03
2022-11-18T03:41:14.202Z,100050.44
2022-11-18T03:43:47.727Z,100055.38
2022-11-18T03:46:23.360Z,100065.34
2022-11-18T03:48:54.869Z,100064.66
2022-11-18T03:51:26.372Z,100075.44
2022-11-18T03:53:59.276Z,100086.81
2022-11-18T03:56:32.774Z,100089.25
2022-11-18T03:59:08.294Z,100094.53
2022-11-18T04:01:45.916Z,100103.16
2022-11-18T04:04:16.144Z,100107.84
2022-11-18T04:06:49.057Z,100114.34
2022-11-18T04:09:23.088Z,100122.84
2022-11-18T04:12:08.219Z,100128.00
2022-11-18T04:14:39.635Z,100129.09
2022-11-18T04:17:14.191Z,100132.84
2022-11-18T04:19:44.007Z,100137.13
2022-11-18T04:22:14.078Z,100134.34
2022-11-18T04:24:43.491Z,100140.16
2022-11-18T04:27:12.972Z,100137.16
2022-11-18T04:29:42.529Z,100139.38
2022-11-18T04:32:14.535Z,100133.84
2022-11-18T04:34:43.938Z,100139.53
2022-11-18T04:37:13.393Z,100132.28
2022-11-18T04:39:42.856Z,100134.56
2022-11-18T04:42:14.624Z,100138.66
2022-11-18T04:44:44.023Z,100131.38
2022-11-18T04:47:16.147Z,100137.53
2022-11-18T04:49:45.724Z,100140.72
2022-11-18T04:52:15.186Z,100143.03
2022-11-18T04:54:44.758Z,100146.31
2022-11-18T04:57:14.202Z,100151.16
2022-11-18T04:59:43.835Z,100153.56
2022-11-18T05:02:15.793Z,100153.69
2022-11-18T05:04:45.258Z,100149.78
2022-11-18T05:07:17.131Z,100153.69
2022-11-18T05:09:46.631Z,100149.41
2022-11-18T05:12:29.578Z,100146.63
2022-11-18T05:14:59.096Z,100153.34
2022-11-18T05:17:31.323Z,100158.41
2022-11-18T05:20:00.771Z,100155.00
2022-11-18T05:22:30.562Z,100155.28
2022-11-18T05:25:00.101Z,100161.91
2022-11-18T05:27:29.541Z,100156.84
2022-11-18T05:29:59.158Z,100159.47
2022-11-18T05:32:31.209Z,100166.97
2022-11-18T05:35:00.646Z,100159.38
2022-11-18T05:37:30.119Z,100166.97
2022-11-18T05:39:59.558Z,100158.13
2022-11-18T05:42:41.551Z,100164.94
2022-11-18T05:45:12.041Z,100166.50
2022-11-18T05:47:56.394Z,100177.63
2022-11-18T05:50:25.881Z,100172.69
2022-11-18T05:52:55.370Z,100180.16
2022-11-18T05:55:27.466Z,100174.44
2022-11-18T05:57:56.846Z,100180.41
2022-11-18T06:00:26.679Z,100186.75
2022-11-18T06:02:59.493Z,100183.97
2022-11-18T06:05:29.473Z,100190.06
2022-11-18T06:07:59.739Z,100188.09
2022-11-18T06:10:31.800Z,100192.06
2022-11-18T06:13:04.896Z,100189.81
2022-11-18T06:15:36.435Z,100190.72
2022-11-18T06:18:11.189Z,100197.19
2022-11-18T06:20:42.292Z,100196.16
2022-11-18T06:23:11.788Z,100194.88
2022-11-18T06:25:41.608Z,100202.47
2022-11-18T06:28:13.750Z,100205.00
2022-11-18T06:30:43.246Z,100208.94
2022-11-18T06:33:15.462Z,100214.66
2022-11-18T06:35:45.141Z,100220.72
2022-11-18T06:38:14.589Z,100220.38
2022-11-18T06:40:44.809Z,100229.88
2022-11-18T06:43:30.433Z,100230.50
2022-11-18T06:46:14.068Z,100241.41
2022-11-18T06:48:46.164Z,100229.38
2022-11-18T06:51:16.025Z,100239.78
2022-11-18T06:53:45.722Z,100239.78
2022-11-18T06:56:16.781Z,100251.69
2022-11-18T06:58:46.298Z,100249.41
2022-11-18T07:01:17.153Z,100262.44
2022-11-18T07:03:49.514Z,100265.75
2022-11-18T07:06:20.713Z,100253.81
2022-11-18T07:08:50.566Z,100265.09
2022-11-18T07:11:21.583Z,100268.75
2022-11-18T07:13:51.051Z,100268.84
2022-11-18T07:16:22.002Z,100285.09
2022-11-18T07:18:55.178Z,100283.06
2022-11-18T07:21:26.266Z,100285.59
2022-11-18T07:23:55.873Z,100288.13
2022-11-18T07:26:25.817Z,100294.09
2022-11-18T07:28:56.608Z,100293.56
2022-11-18T07:31:26.028Z,100300.81
2022-11-18T07:33:58.331Z,100295.56
2022-11-18T07:36:35.168Z,100308.59
2022-11-18T07:39:06.050Z,100330.06
2022-11-18T07:41:35.617Z,100326.78
2022-11-18T07:44:07.451Z,100347.00
2022-11-18T07:46:38.008Z,100349.09
2022-11-18T07:49:11.564Z,100347.41
2022-11-18T07:51:43.133Z,100365.34
2022-11-18T07:54:14.137Z,100365.09
2022-11-18T07:56:43.573Z,100373.34
2022-11-18T07:59:13.064Z,100375.84
2022-11-18T08:01:42.516Z,100378.38
2022-11-18T08:04:15.410Z,100385.59
2022-11-18T08:06:44.887Z,100389.25
2022-11-18T08:09:15.172Z,100385.38
2022-11-18T08:11:47.492Z,100384.84
2022-11-18T08:14:16.913Z,100393.19
2022-11-18T08:16:46.436Z,100401.56
2022-11-18T08:19:18.819Z,100399.03
2022-11-18T08:21:48.386Z,100412.31
2022-11-18T08:24:17.785Z,100414.16
2022-11-18T08:26:47.360Z,100422.69
2022-11-18T08:29:20.343Z,100426.00
2022-11-18T08:31:54.765Z,100436.41
2022-11-18T08:34:26.724Z,100446.25
2022-11-18T08:36:56.163Z,100451.28
2022-11-18T08:39:26.389Z,100463.03
2022-11-18T08:41:55.825Z,100468.06
2022-11-18T08:44:25.233Z,100475.69
2022-11-18T08:46:54.605Z,100479.94
2022-11-18T08:49:32.216Z,100484.75
2022-11-18T08:52:02.031Z,100504.03
2022-11-18T08:54:31.689Z,100497.16
2022-11-18T08:57:01.060Z,100503.69
2022-11-18T08:59:30.500Z,100517.84
2022-11-18T09:02:00.003Z,100518.03
2022-11-18T09:04:32.266Z,100521.38
2022-11-18T09:07:03.006Z,100550.56
2022-11-18T09:09:32.689Z,100554.03
2022-11-18T09:12:02.193Z,100550.06
2022-11-18T09:17:21.634Z,100560.09
2022-11-18T09:19:53.733Z,100562.19
2022-11-18T09:22:23.149Z,100568.06
2022-11-18T09:24:55.410Z,100555.06
2022-11-18T09:27:25.078Z,100554.72
2022-11-18T09:29:54.479Z,100562.63
2022-11-18T09:32:24.036Z,100559.63
2022-11-18T09:34:56.029Z,100564.91
2022-11-18T09:37:25.509Z,100563.41
2022-11-18T09:39:56.017Z,100568.47
2022-11-18T09:42:37.300Z,100567.91
2022-11-18T09:45:20.725Z,100575.91
2022-11-18T09:47:53.483Z,100580.13
2022-11-18T09:53:21.147Z,100588.84
2022-11-18T09:55:51.975Z,100585.53
2022-11-18T09:58:24.809Z,100589.19
2022-11-18T10:00:54.907Z,100591.19
2022-11-18T10:03:30.497Z,100592.41
2022-11-18T10:06:07.298Z,100599.50
2022-11-18T10:08:45.406Z,100596.06
2022-11-18T10:11:18.148Z,100599.44
2022-11-18T10:13:57.749Z,100610.53
2022-11-18T10:16:39.407Z,100621.34
2022-11-18T10:19:15.962Z,100618.41
2022-11-18T10:21:54.812Z,100623.38
2022-11-18T10:24:26.406Z,100618.47
2022-11-18T10:26:58.883Z,100634.78
2022-11-18T10:29:28.780Z,100638.63
2022-11-18T10:32:08.780Z,100636.72
2022-11-18T10:34:49.978Z,100651.94
2022-11-18T10:38:00.290Z,100655.69
2022-11-18T10:40:27.545Z,100657.97
2022-11-18T10:42:57.086Z,100664.34
2022-11-18T10:45:32.091Z,100661.44
2022-11-18T10:48:10.125Z,100666.16
2022-11-18T10:50:41.478Z,100662.09
2022-11-18T10:53:32.264Z,100678.03
2022-11-18T10:56:03.296Z,100691.00
2022-11-18T10:58:34.319Z,100687.94
2022-11-18T11:01:22.380Z,100694.59
2022-11-18T11:03:59.954Z,100700.97
2022-11-18T11:06:34.608Z,100698.06
2022-11-18T11:09:10.141Z,100703.78
2022-11-18T11:11:43.576Z,100702.09
2022-11-18T11:14:26.364Z,100701.59
2022-11-18T11:17:00.930Z,100706.41
2022-11-18T11:19:38.575Z,100701.97
2022-11-18T11:22:11.972Z,100703.50
2022-11-18T11:24:44.172Z,100702.97
2022-11-18T11:30:21.920Z,100717.41
2022-11-18T11:33:12.475Z,100711.13
2022-11-18T11:35:54.281Z,100712.34
2022-11-18T11:38:33.897Z,100726.28
2022-11-18T11:41:09.804Z,100716.63
2022-11-18T11:43:49.150Z,100729.59
2022-11-18T11:46:28.941Z,100734.19
2022-11-18T11:49:02.729Z,100731.41
2022-11-18T11:51:36.860Z,100734.44
2022-11-18T11:54:36.393Z,100738.13
2022-11-18T11:57:20.327Z,100739.25
2022-11-18T11:59:54.575Z,100746.84
2022-11-18T12:02:36.420Z,100742.00
2022-11-18T12:05:11.746Z,100746.19
2022-11-18T12:07:44.440Z,100742.78
2022-11-18T12:10:33.403Z,100746.97
2022-11-18T12:13:20.403Z,100751.97
2022-11-18T12:15:58.670Z,100741.81
2022-11-18T12:18:33.136Z,100748.94
2022-11-18T12:21:02.961Z,100749.28
2022-11-18T12:23:33.191Z,100748.66
2022-11-18T12:26:08.348Z,100758.56
2022-11-18T12:28:42.812Z,100749.16
2022-11-18T12:31:34.702Z,100751.47
2022-11-18T12:34:22.360Z,100757.06
2022-11-18T12:36:51.925Z,100759.84
2022-11-18T12:39:49.931Z,100768.34
2022-11-18T12:42:56.474Z,100766.94
2022-11-18T12:45:53.083Z,100775.06
2022-11-18T12:48:34.839Z,100778.84
2022-11-18T12:51:05.490Z,100783.56
2022-11-18T12:53:38.771Z,100773.00
2022-11-18T12:56:26.380Z,100780.78
2022-11-18T12:58:57.579Z,100779.53
2022-11-18T13:01:32.103Z,100782.41
2022-11-18T13:04:10.485Z,100779.16
2022-11-18T13:06:42.043Z,100785.00
2022-11-18T13:09:18.551Z,100792.13
2022-11-18T13:11:50.753Z,100795.41
2022-11-18T13:14:35.873Z,100809.38
2022-11-18T13:17:38.684Z,100807.25
2022-11-18T13:20:08.896Z,100807.22
2022-11-18T13:22:50.907Z,100803.66
2022-11-18T13:25:27.465Z,100799.72
2022-11-18T13:28:02.719Z,100807.97
2022-11-18T13:30:33.259Z,100808.25
2022-11-18T13:33:05.382Z,100801.06
2022-11-18T13:35:34.871Z,100815.63
2022-11-18T13:38:08.293Z,100829.25
2022-11-18T13:41:04.560Z,100837.22
2022-11-18T13:43:34.624Z,100860.69
2022-11-18T13:46:07.237Z,100871.59
2022-11-18T13:48:40.616Z,100893.53
2022-11-18T13:51:10.218Z,100902.88
2022-11-18T13:53:41.165Z,100909.28
2022-11-18T13:56:19.044Z,100902.66
2022-11-18T13:59:16.317Z,100901.34
2022-11-18T14:01:47.187Z,100901.22
2022-11-18T14:04:24.271Z,100906.09
2022-11-18T14:06:53.943Z,100906.41
2022-11-18T14:09:27.497Z,100893.53
2022-11-18T14:12:01.995Z,100900.53
2022-11-18T14:14:33.451Z,100904.81
2022-11-18T14:17:20.692Z,100903.84
2022-11-18T14:19:54.401Z,100906.22
2022-11-18T14:22:25.562Z,100906.13
2022-11-18T14:24:59.578Z,100910.38
2022-11-18T14:27:38.197Z,100908.88
2022-11-18T14:30:38.429Z,100909.75
2022-11-18T14:33:22.760Z,100920.84
2022-11-18T14:35:57.465Z,100919.34
2022-11-18T14:38:51.997Z,100914.28
2022-11-18T14:41:44.842Z,100908.03
2022-11-18T14:44:15.179Z,100910.72
2022-11-18T14:46:46.614Z,100860.59
2022-11-18T14:49:22.321Z,100865.81
2022-11-18T14:51:55.285Z,100871.88
2022-11-18T14:54:28.152Z,100891.72
2022-11-18T14:57:00.940Z,100893.59
2022-11-18T14:59:30.645Z,100890.13
2022-11-18T15:02:00.580Z,100901.41
2022-11-18T15:04:30.631Z,100908.41
2022-11-18T15:07:02.672Z,100903.25
2022-11-18T15:09:32.098Z,100902.84
2022-11-18T15:12:03.653Z,100909.97
2022-11-18T15:14:33.293Z,100903.81
2022-11-18T15:17:02.749Z,100897.41
2022-11-18T15:19:35.288Z,100896.75
2022-11-18T15:22:07.606Z,100908.31
2022-11-18T15:24:37.049Z,100919.78
2022-11-18T15:27:06.605Z,100921.53
2022-11-18T15:29:36.055Z,100917.44
2022-11-18T15:32:06.634Z,100919.28
2022-11-18T15:34:36.070Z,100920.59
2022-11-18T15:37:08.172Z,100911.38
2022-11-18T15:39:37.646Z,100921.38
2022-11-18T15:42:07.249Z,100919.25
2022-11-18T15:44:36.841Z,100927.44
2022-11-18T15:47:06.369Z,100929.97
2022-11-18T15:49:35.911Z,100934.88
2022-11-18T15:52:08.667Z,100945.72
2022-11-18T15:54:38.431Z,100974.47
2022-11-18T15:57:08.453Z,100972.75
2022-11-18T15:59:37.940Z,100974.31
2022-11-18T16:02:07.393Z,100973.81
2022-11-18T16:04:36.956Z,100970.50
2022-11-18T16:07:09.109Z,100978.16
2022-11-18T16:09:51.103Z,100985.66
2022-11-18T16:12:33.112Z,100984.34
2022-11-18T16:15:15.099Z,100990.19
2022-11-18T16:17:44.604Z,100988.81
2022-11-18T16:20:14.127Z,101001.19
2022-11-18T16:22:46.366Z,101003.50
2022-11-18T16:25:16.990Z,101008.06
2022-11-18T16:27:46.564Z,101003.22
2022-11-18T16:30:29.022Z,101005.47
2022-11-18T16:32:58.465Z,101004.97
2022-11-18T16:35:28.011Z,101011.44
2022-11-18T16:38:00.152Z,101013.72
2022-11-18T16:40:29.693Z,101013.31
2022-11-18T16:42:59.428Z,101015.03
2022-11-18T16:45:29.551Z,101020.88
2022-11-18T16:47:59.034Z,101011.63
2022-11-18T16:50:28.574Z,101022.66
2022-11-18T16:53:00.592Z,101021.66
2022-11-18T16:55:30.113Z,101031.66
2022-11-18T16:57:59.543Z,101027.19
2022-11-18T17:00:59.829Z,101033.00
2022-11-18T17:03:18.612Z,101034.09
2022-11-18T17:05:48.118Z,101035.47
2022-11-18T17:08:20.211Z,101028.09
2022-11-18T17:10:49.617Z,101030.13
2022-11-18T17:13:19.108Z,101031.03
2022-11-18T17:15:48.553Z,101022.56
2022-11-18T17:18:17.962Z,101014.19
2022-11-18T17:20:47.388Z,101003.75
2022-11-18T17:23:16.932Z,100981.53
2022-11-18T17:25:49.011Z,100986.47
2022-11-18T17:28:18.429Z,100993.00
2022-11-18T17:30:50.092Z,100988.88
2022-11-18T17:33:19.876Z,101006.91
2022-11-18T17:35:49.704Z,101021.19
2022-11-18T17:38:20.123Z,101037.88
2022-11-18T17:40:56.022Z,101060.34
2022-11-18T17:43:25.770Z,101058.63
2022-11-18T17:45:56.503Z,101067.09
2022-11-18T17:48:26.896Z,101061.88
2022-11-18T17:50:56.765Z,101066.66
2022-11-18T17:53:26.223Z,101063.09
2022-11-18T17:56:03.493Z,101056.94
2022-11-18T17:58:33.439Z,101060.19
2022-11-18T18:01:09.554Z,101061.66
2022-11-18T18:03:39.371Z,101059.34
2022-11-18T18:06:10.296Z,101060.97
2022-11-18T18:08:40.079Z,101067.03
2022-11-18T18:11:14.026Z,101062.84
2022-11-18T18:13:56.756Z,101063.00
2022-11-18T18:16:26.554Z,101074.91
2022-11-18T18:18:56.511Z,101076.03
2022-11-18T18:21:26.027Z,101079.06
2022-11-18T18:23:56.019Z,101086.00
2022-11-18T18:26:31.459Z,101088.41
2022-11-18T18:29:01.806Z,101090.22
2022-11-18T18:31:31.866Z,101094.13
2022-11-18T18:34:01.327Z,101098.31
2022-11-18T18:36:30.845Z,101091.47
2022-11-18T18:39:02.382Z,101095.78
2022-11-18T18:41:34.594Z,101099.69
2022-11-18T18:44:04.391Z,101091.53
2022-11-18T18:46:32.371Z,101093.38
2022-11-18T18:49:06.932Z,101101.16
2022-11-18T18:51:39.600Z,101095.97
2022-11-18T18:54:10.219Z,101093.84
2022-11-18T18:56:42.703Z,101096.72
2022-11-18T18:59:12.790Z,101087.19
2022-11-18T19:01:42.811Z,101090.00
2022-11-18T19:04:14.125Z,101085.53
2022-11-18T19:06:59.519Z,101068.72
2022-11-18T19:09:29.642Z,101068.66
2022-11-18T19:12:14.247Z,101068.22
2022-11-18T19:14:44.056Z,101070.63
2022-11-18T19:17:14.037Z,101080.94
2022-11-18T19:19:56.917Z,101080.63
2022-11-18T19:22:26.391Z,101072.00
2022-11-18T19:24:56.430Z,101080.19
2022-11-18T19:27:28.919Z,101083.91
2022-11-18T19:29:58.503Z,101096.13
2022-11-18T19:32:28.947Z,101100.09
2022-11-18T19:34:58.496Z,101119.31
2022-11-18T19:37:27.959Z,101119.31
2022-11-18T19:39:58.839Z,101123.63
2022-11-18T19:42:31.013Z,101127.50
2022-11-18T19:45:00.558Z,101132.00
2022-11-18T19:47:30.009Z,101136.91
2022-11-18T19:49:59.577Z,101131.06
2022-11-18T19:52:29.022Z,101136.34
2022-11-18T19:54:58.506Z,101136.94
2022-11-18T19:57:28.191Z,101143.84
2022-11-18T20:00:00.217Z,101138.13
2022-11-18T20:02:29.616Z,101145.47
2022-11-18T20:05:11.484Z,101144.44
2022-11-18T20:07:41.022Z,101143.38
2022-11-18T20:10:11.879Z,101142.97
2022-11-18T20:12:41.282Z,101148.94
2022-11-18T20:15:13.874Z,101151.75
2022-11-18T20:17:43.403Z,101154.31
2022-11-18T20:20:13.718Z,101146.72
2022-11-18T20:22:43.163Z,101148.34
2022-11-18T20:25:14.290Z,101153.25
2022-11-18T20:27:43.785Z,101153.72
2022-11-18T20:30:17.579Z,101153.72
2022-11-18T20:32:47.360Z,101156.25
2022-11-18T20:35:17.387Z,101158.47
2022-11-18T20:37:46.794Z,101161.44
2022-11-18T20:40:16.238Z,101154.00
2022-11-18T20:42:58.083Z,101158.78
2022-11-18T20:45:30.143Z,101156.38
2022-11-18T20:47:59.541Z,101161.44
2022-11-18T20:50:28.991Z,101161.00
2022-11-18T20:52:58.463Z,101145.19
2022-11-18T20:55:27.931Z,101143.28
2022-11-18T20:57:57.304Z,101146.03
2022-11-18T21:00:26.786Z,101142.56
2022-11-18T21:02:58.901Z,101148.09
2022-11-18T21:05:30.626Z,101163.69
2022-11-18T21:08:00.079Z,101159.22
2022-11-18T21:10:29.460Z,101162.06
2022-11-18T21:13:11.335Z,101186.56
2022-11-18T21:15:40.757Z,101195.91
2022-11-18T21:18:13.001Z,101215.94
2022-11-18T21:20:54.904Z,101224.16
2022-11-18T21:23:24.326Z,101220.53
2022-11-18T21:25:53.957Z,101236.22
2022-11-18T21:28:23.359Z,101234.00
2022-11-18T21:30:52.857Z,101229.78
2022-11-18T21:33:25.323Z,101229.78
2022-11-18T21:35:54.769Z,101230.22
2022-11-18T21:38:24.406Z,101225.78
2022-11-18T21:40:53.849Z,101225.31
2022-11-18T21:43:50.263Z,101225.47
2022-11-18T21:46:13.977Z,101219.81
2022-11-18T21:48:47.143Z,101212.66
2022-11-18T21:51:18.691Z,101207.00
2022-11-18T21:53:48.545Z,101215.97
2022-11-18T21:56:20.408Z,101216.84
2022-11-18T21:58:49.887Z,101218.59
2022-11-18T22:01:21.093Z,101224.72
2022-11-18T22:03:55.677Z,101231.69
2022-11-18T22:06:27.117Z,101233.47
2022-11-18T22:08:56.493Z,101225.59
2022-11-18T22:11:26.142Z,101234.81
2022-11-18T22:13:55.976Z,101229.16
2022-11-18T22:16:27.141Z,101229.88
2022-11-18T22:19:06.655Z,101230.78
2022-11-18T22:21:37.493Z,101233.75
2022-11-18T22:24:07.209Z,101237.00
2022-11-18T22:26:36.647Z,101235.19
2022-11-18T22:29:06.225Z,101232.41
2022-11-18T22:31:35.665Z,101227.19
2022-11-18T22:34:08.000Z,101224.78
2022-11-18T22:36:37.634Z,101227.44
2022-11-18T22:39:07.175Z,101227.31
2022-11-18T22:41:49.306Z,101227.94
2022-11-18T22:44:19.502Z,101230.88
2022-11-18T22:46:48.868Z,101232.19
2022-11-18T22:49:21.314Z,101231.16
2022-11-18T22:51:51.085Z,101228.63
2022-11-18T22:54:38.316Z,101225.91
2022-11-18T22:57:08.754Z,101240.59
2022-11-18T22:59:38.246Z,101230.03
2022-11-18T23:02:08.167Z,101237.88
2022-11-18T23:04:40.158Z,101242.06
2022-11-18T23:07:09.753Z,101238.66
2022-11-18T23:09:39.158Z,101236.25
2022-11-18T23:12:21.252Z,101239.53
2022-11-18T23:14:50.751Z,101236.28
2022-11-18T23:17:20.798Z,101242.94
2022-11-18T23:19:52.748Z,101250.47
2022-11-18T23:22:22.164Z,101254.34
2022-11-18T23:24:51.559Z,101255.91
2022-11-18T23:27:21.025Z,101255.41
2022-11-18T23:29:50.454Z,101258.56
2022-11-18T23:32:19.928Z,101258.72
2022-11-18T23:34:52.321Z,101268.25
2022-11-18T23:37:21.737Z,101266.06
2022-11-18T23:39:52.664Z,101278.06
2022-11-18T23:42:22.063Z,101274.00
2022-11-18T23:44:52.840Z,101278.44
2022-11-18T23:47:22.322Z,101270.22
2022-11-18T23:49:54.315Z,101264.41
2022-11-18T23:52:23.766Z,101260.28
2022-11-18T23:54:54.565Z,101256.44
2022-11-18T23:57:24.032Z,101257.00
2022-11-18T23:59:53.389Z,101256.66
